Time;durP1;ratioP1;P1;durP2;ratioP2;P2;SDS_P1;SDS_P2;PMS_P1;PMS_P2;Temp;Humidity;BMP_temperature;BMP_pressure;BME280_temperature;BME280_humidity;BME280_pressure;Samples;Min_cycle;Max_cycle;Signal;HPM_P1;HPM_P2
2022/08/31 00:04:31;;;;;;;2.33;1.80;;;;;;;18.08;100.00;99314.69;4310394;33;20477;-71
2022/08/31 00:06:57;;;;;;;2.90;1.60;;;;;;;18.37;100.00;99359.28;4326900;33;20062;-72
2022/08/31 00:09:24;;;;;;;3.78;1.77;;;;;;;18.40;100.00;99359.50;4327307;33;20054;-72
2022/08/31 00:11:51;;;;;;;6.15;2.17;;;;;;;18.22;100.00;99335.75;4321614;33;20056;-73
2022/08/31 00:14:17;;;;;;;2.60;1.60;;;;;;;17.88;100.00;99304.03;4325023;33;20092;-71
2022/08/31 00:16:44;;;;;;;5.00;1.73;;;;;;;18.14;100.00;99338.03;4326639;33;20047;-72
2022/08/31 00:19:11;;;;;;;5.10;2.30;;;;;;;17.91;100.00;99312.44;4327214;33;20156;-72
2022/08/31 00:21:38;;;;;;;4.18;2.25;;;;;;;18.15;100.00;99342.38;4325327;33;20044;-72
2022/08/31 00:24:04;;;;;;;7.78;2.40;;;;;;;18.19;100.00;99352.69;4324569;33;20052;-71
2022/08/31 00:26:37;;;;;;;6.50;2.60;;;;;;;18.26;100.00;99347.69;4327149;33;20073;-72
2022/08/31 00:29:04;;;;;;;5.70;2.78;;;;;;;18.21;100.00;99350.50;4326677;33;20079;-71
2022/08/31 00:31:30;;;;;;;5.75;2.37;;;;;;;17.83;100.00;99307.59;4323484;33;20060;-72
2022/08/31 00:33:57;;;;;;;5.10;2.40;;;;;;;18.15;100.00;99355.19;4293172;33;20096;-74
2022/08/31 00:36:25;;;;;;;6.05;2.12;;;;;;;17.83;100.00;99317.69;4295036;33;20067;-71
2022/08/31 00:38:53;;;;;;;8.23;2.75;;;;;;;18.21;100.00;99361.41;4281582;33;20063;-71
2022/08/31 00:41:23;;;;;;;4.00;2.05;;;;;;;18.24;100.00;99356.16;4279677;33;20090;-70
2022/08/31 00:43:59;;;;;;;4.55;2.35;;;;;;;18.29;100.00;99368.91;4286020;33;20131;-71
2022/08/31 00:46:29;;;;;;;6.80;2.30;;;;;;;18.35;100.00;99373.19;4286906;33;20049;-71
2022/08/31 00:49:01;;;;;;;2.72;2.10;;;;;;;18.12;100.00;99329.31;4287357;33;20071;-71
2022/08/31 00:51:31;;;;;;;3.90;2.12;;;;;;;18.30;100.00;99371.34;4289712;33;20045;-72
2022/08/31 00:53:58;;;;;;;4.47;2.47;;;;;;;17.86;100.00;99328.00;4282184;33;20079;-72
2022/08/31 00:56:25;;;;;;;3.50;2.10;;;;;;;17.90;100.00;99367.19;4289183;33;20946;-72
2022/08/31 00:58:53;;;;;;;3.42;1.67;;;;;;;17.85;100.00;99334.53;4289131;33;20416;-72
2022/08/31 01:01:19;;;;;;;3.45;1.90;;;;;;;17.69;100.00;99345.59;4287147;33;20033;-72
2022/08/31 01:03:46;;;;;;;3.10;2.22;;;;;;;17.47;100.00;99304.47;4289847;33;20051;-71
2022/08/31 01:06:15;;;;;;;2.35;1.85;;;;;;;17.77;100.00;99331.37;4322467;33;20041;-71
2022/08/31 01:08:44;;;;;;;3.85;2.10;;;;;;;18.00;100.00;99361.66;4323328;33;20056;-71
2022/08/31 01:11:11;;;;;;;2.45;2.05;;;;;;;18.10;100.00;99366.16;4327343;33;20079;-71
2022/08/31 01:13:38;;;;;;;6.55;1.92;;;;;;;17.79;100.00;99328.38;4325954;33;20036;-72
2022/08/31 01:16:12;;;;;;;3.95;2.30;;;;;;;17.39;100.00;99309.47;4325176;33;20052;-71
2022/08/31 01:18:40;;;;;;;4.55;2.20;;;;;;;17.65;100.00;99360.91;4271187;33;20053;-71
2022/08/31 01:21:34;;;;;;;1.85;1.75;;;;;;;17.75;100.00;99349.91;4276041;33;20079;-71
2022/08/31 01:24:03;;;;;;;3.50;1.85;;;;;;;17.85;100.00;99353.59;4281193;33;20084;-71
2022/08/31 01:26:32;;;;;;;4.50;2.12;;;;;;;17.62;100.00;99312.47;4280937;33;20518;-71
2022/08/31 01:29:03;;;;;;;6.15;1.98;;;;;;;17.43;100.00;99315.13;4281537;33;20405;-71
2022/08/31 01:31:34;;;;;;;6.20;2.20;;;;;;;17.64;100.00;99353.84;4279062;33;20063;-72
2022/08/31 01:34:00;;;;;;;9.00;2.10;;;;;;;17.55;100.00;99356.38;4281687;33;20045;-71
2022/08/31 01:36:27;;;;;;;6.28;1.85;;;;;;;17.60;100.00;99352.81;4281734;33;20090;-71
2022/08/31 01:38:55;;;;;;;5.97;2.30;;;;;;;17.67;100.00;99361.44;4280270;33;20064;-71
2022/08/31 01:41:22;;;;;;;5.05;2.08;;;;;;;17.34;100.00;99314.97;4265008;33;20038;-72
2022/08/31 01:43:49;;;;;;;9.00;2.47;;;;;;;17.36;100.00;99348.13;4257744;33;20059;-72
2022/08/31 01:46:15;;;;;;;8.35;2.83;;;;;;;17.02;100.00;99316.34;4237485;33;20034;-71
2022/08/31 01:48:45;;;;;;;2.35;1.92;;;;;;;17.28;100.00;99356.09;4248954;33;20416;-72
2022/08/31 01:51:13;;;;;;;6.65;3.78;;;;;;;17.40;100.00;99353.81;4252657;33;20050;-71
2022/08/31 01:53:42;;;;;;;4.10;2.20;;;;;;;17.24;100.00;99361.31;4240477;33;20094;-72
2022/08/31 01:56:14;;;;;;;9.32;2.47;;;;;;;17.15;100.00;99363.00;4223613;33;20132;-71
2022/08/31 01:58:41;;;;;;;2.50;2.30;;;;;;;17.23;100.00;99357.78;4235908;33;20051;-71
2022/08/31 02:01:08;;;;;;;3.80;1.87;;;;;;;17.21;100.00;99359.16;4238045;33;20408;-71
2022/08/31 02:03:35;;;;;;;2.60;2.00;;;;;;;16.61;100.00;99330.22;4235275;33;20051;-72
2022/08/31 02:06:19;;;;;;;5.00;2.40;;;;;;;16.21;100.00;99302.19;4224309;34;20039;-71
2022/08/31 02:08:46;;;;;;;4.97;2.25;;;;;;;16.52;100.00;99312.88;4223257;34;20063;-72
2022/08/31 02:11:13;;;;;;;2.22;2.03;;;;;;;16.83;100.00;99348.00;4223600;34;20409;-72
2022/08/31 02:13:39;;;;;;;3.53;2.17;;;;;;;16.89;100.00;99344.16;4236429;33;20118;-71
2022/08/31 02:16:06;;;;;;;5.90;2.90;;;;;;;16.88;100.00;99353.41;4222551;33;20056;-71
2022/08/31 02:18:34;;;;;;;4.75;2.42;;;;;;;16.88;100.00;99337.09;4224229;33;20027;-72
2022/08/31 02:21:01;;;;;;;6.93;2.20;;;;;;;16.96;100.00;99350.12;4223492;33;20064;-72
2022/08/31 02:23:28;;;;;;;6.37;2.42;;;;;;;17.12;100.00;99352.69;4249171;33;20372;-72
2022/08/31 02:25:55;;;;;;;5.37;2.67;;;;;;;16.63;100.00;99313.63;4247210;33;20068;-71
2022/08/31 02:28:22;;;;;;;5.50;2.20;;;;;;;16.89;100.00;99346.91;4246914;33;20026;-71
2022/08/31 02:30:50;;;;;;;4.07;2.37;;;;;;;16.03;100.00;99224.06;4251709;33;20082;-72
2022/08/31 02:33:17;;;;;;;5.45;2.80;;;;;;;16.46;100.00;99311.28;4245811;33;20404;-73
2022/08/31 02:35:43;;;;;;;2.97;2.42;;;;;;;16.65;100.00;99355.72;4234429;33;20409;-71
2022/08/31 02:38:10;;;;;;;9.40;2.50;;;;;;;16.56;100.00;99346.56;4275715;33;20424;-71
2022/08/31 02:40:37;;;;;;;5.95;2.22;;;;;;;16.48;100.00;99355.28;4279863;33;20065;-71
2022/08/31 02:43:04;;;;;;;8.27;2.67;;;;;;;16.52;100.00;99357.16;4267209;33;20022;-74
2022/08/31 02:45:31;;;;;;;4.15;2.20;;;;;;;16.11;100.00;99311.19;4263930;33;20095;-71
2022/08/31 02:47:59;;;;;;;5.70;2.67;;;;;;;16.20;100.00;99343.22;4289368;33;20047;-71
2022/08/31 02:50:25;;;;;;;4.40;2.50;;;;;;;16.17;100.00;99355.44;4297052;33;20164;-71
2022/08/31 02:52:55;;;;;;;4.28;2.20;;;;;;;16.17;100.00;99350.81;4302140;33;20071;-71
2022/08/31 02:55:26;;;;;;;4.78;2.28;;;;;;;15.77;100.00;99297.50;4294449;33;20055;-71
2022/08/31 02:57:52;;;;;;;6.12;2.25;;;;;;;16.25;100.00;99349.44;4306116;33;20032;-71
2022/08/31 03:00:21;;;;;;;6.40;2.62;;;;;;;15.83;100.00;99303.72;4293250;33;20059;-72
2022/08/31 03:02:48;;;;;;;5.53;2.45;;;;;;;15.93;100.00;99306.41;4294491;33;20114;-71
2022/08/31 03:05:14;;;;;;;4.45;2.45;;;;;;;16.33;100.00;99348.84;4276695;33;20183;-72
2022/08/31 03:07:41;;;;;;;13.65;2.78;;;;;;;15.90;100.00;99280.59;4285593;33;20088;-72
2022/08/31 03:10:16;;;;;;;6.03;2.90;;;;;;;15.86;100.00;99306.72;4293974;33;20034;-71
2022/08/31 03:12:42;;;;;;;5.10;2.70;;;;;;;15.86;100.00;99309.44;4291055;33;20057;-72
2022/08/31 03:15:09;;;;;;;2.75;2.45;;;;;;;15.96;100.00;99309.38;4306837;33;20064;-72
2022/08/31 03:17:36;;;;;;;5.72;2.60;;;;;;;16.00;100.00;99311.53;4298646;33;20062;-72
2022/08/31 03:20:05;;;;;;;4.90;2.67;;;;;;;16.21;100.00;99339.41;4304926;33;20049;-72
2022/08/31 03:22:32;;;;;;;6.10;2.67;;;;;;;16.06;100.00;99304.97;4303366;33;20030;-72
2022/08/31 03:24:59;;;;;;;3.28;2.97;;;;;;;15.97;100.00;99286.56;4294710;33;20101;-73
2022/08/31 03:27:28;;;;;;;8.98;2.72;;;;;;;16.11;100.00;99313.09;4300973;33;20086;-71
2022/08/31 03:32:29;;;;;;;14.82;2.97;;;;;;;16.20;100.00;99344.03;4305831;33;20057;-71
2022/08/31 03:34:58;;;;;;;4.93;2.80;;;;;;;16.13;100.00;99365.25;4307333;33;20054;-72
2022/08/31 03:37:25;;;;;;;5.78;2.50;;;;;;;15.73;100.00;99318.13;4317729;33;20048;-70
2022/08/31 03:39:53;;;;;;;8.75;3.58;;;;;;;16.03;100.00;99362.56;4316027;33;20049;-71
2022/08/31 03:42:20;;;;;;;4.82;2.65;;;;;;;15.62;100.00;99323.59;4307506;33;20374;-71
2022/08/31 03:44:47;;;;;;;4.93;3.03;;;;;;;15.80;100.00;99367.53;4308609;33;20347;-71
2022/08/31 03:47:15;;;;;;;14.48;3.37;;;;;;;15.76;100.00;99369.13;4319551;33;20041;-72
2022/08/31 03:49:48;;;;;;;5.12;3.08;;;;;;;15.44;100.00;99329.59;4320896;33;20097;-71
2022/08/31 03:52:15;;;;;;;6.70;3.22;;;;;;;15.23;100.00;99294.34;4310237;33;20048;-72
2022/08/31 03:54:42;;;;;;;4.85;3.00;;;;;;;15.47;100.00;99329.03;4310315;33;20040;-73
2022/08/31 03:57:09;;;;;;;9.48;3.35;;;;;;;15.36;100.00;99303.81;4317107;33;20076;-72
2022/08/31 03:59:36;;;;;;;6.80;2.78;;;;;;;15.56;100.00;99324.69;4324666;33;20066;-72
2022/08/31 04:02:06;;;;;;;5.07;3.22;;;;;;;15.96;100.00;99349.31;4323092;33;20063;-71
2022/08/31 04:04:52;;;;;;;8.55;3.47;;;;;;;15.90;100.00;99351.22;4307863;33;20058;-71
2022/08/31 04:07:22;;;;;;;5.35;2.80;;;;;;;15.90;100.00;99362.06;4327220;33;20054;-71
2022/08/31 04:09:59;;;;;;;4.50;3.08;;;;;;;15.94;100.00;99360.44;4314601;33;20497;-73
2022/08/31 04:12:32;;;;;;;11.65;4.47;;;;;;;15.70;100.00;99318.66;4322266;33;20182;-73
2022/08/31 04:15:11;;;;;;;11.12;3.22;;;;;;;15.97;100.00;99354.44;4316588;33;20485;-73
2022/08/31 04:17:45;;;;;;;7.65;3.40;;;;;;;15.86;100.00;99350.16;4320285;33;20058;-72
2022/08/31 04:20:13;;;;;;;11.00;3.83;;;;;;;15.80;100.00;99343.09;4320270;33;20036;-73
2022/08/31 04:22:40;;;;;;;5.75;3.62;;;;;;;15.67;100.00;99347.19;4313247;33;20704;-72
2022/08/31 04:25:09;;;;;;;4.20;3.30;;;;;;;15.53;100.00;99319.81;4313655;33;20033;-73
2022/08/31 04:27:39;;;;;;;7.22;2.90;;;;;;;15.84;100.00;99355.03;4313694;33;20041;-72
2022/08/31 04:30:07;;;;;;;13.95;3.50;;;;;;;15.67;100.00;99321.94;4311882;33;20059;-76
2022/08/31 04:32:34;;;;;;;10.48;3.28;;;;;;;16.07;100.00;99371.81;4311224;33;20522;-72
2022/08/31 04:35:03;;;;;;;16.17;3.15;;;;;;;16.06;100.00;99370.16;4311108;33;20037;-73
2022/08/31 04:37:30;;;;;;;3.78;3.00;;;;;;;15.96;100.00;99377.25;4310961;33;20032;-74
2022/08/31 04:39:57;;;;;;;6.00;3.55;;;;;;;15.89;100.00;99384.91;4310419;33;20037;-75
2022/08/31 04:42:24;;;;;;;2.85;2.65;;;;;;;15.69;100.00;99341.50;4309918;33;20060;-73
2022/08/31 04:44:50;;;;;;;6.60;2.80;;;;;;;15.76;100.00;99339.28;4282622;33;20079;-73
2022/08/31 04:47:17;;;;;;;6.07;2.85;;;;;;;15.55;100.00;99301.34;4281387;33;20067;-74
2022/08/31 04:49:43;;;;;;;7.05;3.08;;;;;;;15.93;100.00;99345.22;4282461;33;20034;-72
2022/08/31 04:52:10;;;;;;;4.95;3.00;;;;;;;16.16;100.00;99370.13;4278162;33;20167;-72
2022/08/31 04:54:36;;;;;;;9.10;2.85;;;;;;;16.24;100.00;99394.00;4280519;33;20478;-72
2022/08/31 04:57:03;;;;;;;4.43;2.67;;;;;;;15.83;100.00;99345.28;4271619;33;20208;-72
2022/08/31 04:59:30;;;;;;;7.20;2.95;;;;;;;16.18;100.00;99389.69;4281400;33;20041;-72
2022/08/31 05:01:57;;;;;;;4.90;2.65;;;;;;;16.05;100.00;99391.09;4278957;33;20049;-72
2022/08/31 05:04:27;;;;;;;3.55;3.03;;;;;;;16.01;100.00;99373.72;4276802;33;20042;-72
2022/08/31 05:06:54;;;;;;;10.90;3.28;;;;;;;15.90;100.00;99340.34;4295010;33;20053;-73
2022/08/31 05:09:21;;;;;;;9.50;3.17;;;;;;;16.08;100.00;99346.25;4280437;33;20058;-73
2022/08/31 05:11:51;;;;;;;10.20;3.45;;;;;;;15.77;100.00;99302.94;4281981;33;20100;-73
2022/08/31 05:14:18;;;;;;;7.12;3.62;;;;;;;16.33;100.00;99376.00;4276899;33;20053;-73
2022/08/31 05:16:45;;;;;;;7.35;4.40;;;;;;;16.36;100.00;99384.72;4279566;33;20080;-73
2022/08/31 05:19:12;;;;;;;11.45;6.22;;;;;;;16.37;100.00;99391.75;4288593;33;20115;-73
2022/08/31 05:21:40;;;;;;;12.40;4.87;;;;;;;16.22;100.00;99388.03;4285876;33;20047;-72
2022/08/31 05:24:16;;;;;;;6.97;3.40;;;;;;;15.85;100.00;99313.22;4312095;33;20207;-73
2022/08/31 05:26:47;;;;;;;5.43;3.28;;;;;;;16.57;100.00;99402.53;4314492;33;20064;-73
2022/08/31 05:29:16;;;;;;;4.70;3.08;;;;;;;16.24;100.00;99355.97;4311990;33;20096;-73
2022/08/31 05:31:44;;;;;;;4.75;3.55;;;;;;;16.40;100.00;99380.34;4309972;33;20037;-76
2022/08/31 05:34:13;;;;;;;8.35;3.17;;;;;;;16.58;100.00;99406.06;4307646;33;20057;-76
2022/08/31 05:36:43;;;;;;;6.15;2.78;;;;;;;16.57;100.00;99388.94;4311855;33;20787;-73
2022/08/31 05:39:11;;;;;;;6.45;2.97;;;;;;;16.29;100.00;99364.09;4323705;33;20040;-73
2022/08/31 05:41:39;;;;;;;4.22;2.78;;;;;;;16.30;100.00;99360.25;4328090;33;20052;-74
2022/08/31 05:44:06;;;;;;;7.28;2.80;;;;;;;16.40;100.00;99361.31;4295562;33;20053;-76
2022/08/31 05:46:34;;;;;;;4.68;2.35;;;;;;;16.48;100.00;99366.16;4303189;33;20052;-72
2022/08/31 05:49:02;;;;;;;5.05;2.03;;;;;;;16.83;100.00;99394.22;4310149;33;20062;-74
2022/08/31 05:51:30;;;;;;;4.40;2.42;;;;;;;16.99;100.00;99408.56;4281206;33;20045;-74
2022/08/31 05:54:00;;;;;;;2.58;1.95;;;;;;;16.69;100.00;99364.94;4252189;33;20490;-74
2022/08/31 05:56:28;;;;;;;4.20;2.00;;;;;;;17.08;100.00;99392.47;4249730;33;20056;-73
2022/08/31 05:58:55;;;;;;;5.78;1.83;;;;;;;17.15;100.00;99404.66;4251315;33;20075;-74
2022/08/31 06:01:29;;;;;;;5.22;1.80;;;;;;;16.91;100.00;99363.72;4250747;33;20038;-74
2022/08/31 06:03:58;;;;;;;2.60;1.40;;;;;;;17.10;100.00;99414.75;4252660;33;20099;-73
2022/08/31 06:06:25;;;;;;;8.98;1.17;;;;;;;16.91;100.00;99368.37;4251024;33;20035;-74
2022/08/31 06:08:51;;;;;;;2.80;1.15;;;;;;;16.66;100.00;99319.28;4252163;33;20057;-74
2022/08/31 06:11:21;;;;;;;1.95;1.50;;;;;;;17.26;100.00;99408.06;4252312;33;20091;-74
2022/08/31 06:13:50;;;;;;;1.02;1.00;;;;;;;17.38;100.00;99411.25;4250100;33;20060;-74
2022/08/31 06:16:17;;;;;;;4.25;1.70;;;;;;;17.50;100.00;99415.50;4273827;33;20456;-73
2022/08/31 06:18:49;;;;;;;5.87;1.42;;;;;;;17.65;100.00;99415.38;4280333;33;20042;-75
2022/08/31 06:21:30;;;;;;;6.45;1.62;;;;;;;17.52;100.00;99367.03;4279426;33;20045;-74
2022/08/31 06:23:59;;;;;;;2.55;1.37;;;;;;;18.04;100.00;99427.25;4285457;33;20059;-74
2022/08/31 06:26:30;;;;;;;2.80;1.50;;;;;;;17.86;100.00;99377.03;4320591;33;20082;-73
2022/08/31 06:28:59;;;;;;;0.97;0.97;;;;;;;18.18;100.00;99427.38;4315219;33;20354;-73
2022/08/31 06:31:33;;;;;;;6.80;1.70;;;;;;;18.04;100.00;99421.81;4279778;33;20055;-72
2022/08/31 06:34:02;;;;;;;2.35;1.37;;;;;;;18.02;100.00;99424.81;4278752;33;20042;-73
2022/08/31 06:36:31;;;;;;;4.03;1.10;;;;;;;17.84;100.00;99379.22;4280113;33;20157;-73
2022/08/31 06:38:59;;;;;;;1.75;1.08;;;;;;;18.02;100.00;99430.25;4279586;33;20222;-73
2022/08/31 06:41:30;;;;;;;3.70;1.30;;;;;;;17.92;100.00;99430.37;4278660;33;20029;-77
2022/08/31 06:43:59;;;;;;;1.30;1.15;;;;;;;18.09;100.00;99425.31;4278495;33;20361;-73
2022/08/31 06:46:35;;;;;;;5.18;1.50;;;;;;;17.96;100.00;99420.53;4278959;33;20377;-73
2022/08/31 06:49:02;;;;;;;6.78;1.40;;;;;;;18.19;100.00;99434.44;4280153;33;20037;-74
2022/08/31 06:51:35;;;;;;;2.45;1.15;;;;;;;18.12;100.00;99435.59;4278577;33;20061;-76
2022/08/31 06:54:06;;;;;;;1.98;1.33;;;;;;;18.05;100.00;99440.59;4278929;33;20054;-74
2022/08/31 06:56:38;;;;;;;3.30;1.20;;;;;;;17.88;100.00;99413.78;4279582;33;20097;-75
2022/08/31 06:59:07;;;;;;;8.10;3.35;;;;;;;18.08;100.00;99417.41;4280362;33;20440;-74
2022/08/31 07:01:35;;;;;;;17.08;7.62;;;;;;;18.26;100.00;99434.91;4279737;33;20428;-76
2022/08/31 07:04:07;;;;;;;4.20;2.00;;;;;;;18.34;100.00;99442.44;4296412;33;20070;-74
2022/08/31 07:06:40;;;;;;;1.85;1.12;;;;;;;18.38;100.00;99448.12;4298553;33;20157;-73
2022/08/31 07:09:10;;;;;;;5.50;1.80;;;;;;;17.66;100.00;99365.25;4302712;33;20126;-74
2022/08/31 07:11:39;;;;;;;3.55;1.27;;;;;;;18.29;100.00;99447.97;4292784;33;20040;-75
2022/08/31 07:14:07;;;;;;;8.63;2.12;;;;;;;17.71;100.00;99365.22;4304421;33;20378;-74
2022/08/31 07:16:38;;;;;;;1.15;1.00;;;;;;;18.26;100.00;99408.47;4270592;33;20083;-74
2022/08/31 07:19:05;;;;;;;3.53;1.27;;;;;;;18.62;100.00;99448.09;4270790;33;20025;-73
2022/08/31 07:21:38;;;;;;;4.25;1.08;;;;;;;18.46;100.00;99407.41;4279809;33;20042;-74
2022/08/31 07:24:06;;;;;;;2.78;1.17;;;;;;;18.86;100.00;99442.63;4278565;33;20071;-75
2022/08/31 07:26:45;;;;;;;6.80;0.95;;;;;;;18.30;100.00;99381.41;4279531;33;20509;-73
2022/08/31 07:29:17;;;;;;;3.17;1.00;;;;;;;18.11;100.00;99389.59;4268123;33;20030;-73
2022/08/31 07:31:47;;;;;;;1.93;0.93;;;;;;;18.57;100.00;99416.25;4262397;33;20436;-76
2022/08/31 07:34:20;;;;;;;1.02;1.02;;;;;;;18.68;100.00;99416.91;4264091;33;20135;-74
2022/08/31 07:42:25;;;;;;;7.22;0.90;;;;;;;18.78;100.00;99424.97;4272633;33;20133;-73
2022/08/31 07:44:53;;;;;;;1.45;0.90;;;;;;;18.99;100.00;99457.44;4279157;33;20430;-76
2022/08/31 07:47:21;;;;;;;1.35;0.93;;;;;;;19.08;100.00;99472.03;4280841;33;20121;-74
2022/08/31 07:49:52;;;;;;;4.12;1.12;;;;;;;19.14;100.00;99457.19;4281573;33;20032;-74
2022/08/31 07:52:26;;;;;;;2.72;0.80;;;;;;;19.21;100.00;99446.72;4282603;33;20041;-74
2022/08/31 07:54:55;;;;;;;3.03;1.00;;;;;;;19.13;100.00;99454.75;4279063;33;20103;-75
2022/08/31 07:57:26;;;;;;;3.05;0.77;;;;;;;19.12;100.00;99456.69;4280970;33;20077;-71
2022/08/31 08:00:00;;;;;;;3.58;0.90;;;;;;;18.70;100.00;99422.91;4286316;33;20066;-74
2022/08/31 08:02:27;;;;;;;1.85;0.70;;;;;;;19.07;100.00;99454.06;4279596;33;20034;-77
2022/08/31 08:04:54;;;;;;;2.00;1.23;;;;;;;18.76;100.00;99421.69;4280821;33;20038;-74
2022/08/31 08:07:22;;;;;;;1.02;1.00;;;;;;;19.02;100.00;99462.31;4273905;33;20129;-74
2022/08/31 08:09:48;;;;;;;4.65;1.05;;;;;;;18.87;100.00;99423.25;4278745;33;20080;-73
2022/08/31 08:12:19;;;;;;;4.95;0.95;;;;;;;19.39;100.00;99457.94;4281222;33;20047;-75
2022/08/31 08:14:45;;;;;;;1.52;1.30;;;;;;;19.46;100.00;99452.87;4281135;33;20026;-78
2022/08/31 08:17:13;;;;;;;2.62;0.80;;;;;;;18.84;100.00;99423.81;4276314;33;20054;-73
2022/08/31 08:19:41;;;;;;;1.15;1.08;;;;;;;18.89;100.00;99431.13;4276145;33;20193;-74
2022/08/31 08:22:08;;;;;;;1.77;1.23;;;;;;;19.25;100.00;99460.59;4287187;33;20065;-75
2022/08/31 08:24:36;;;;;;;3.72;0.90;;;;;;;19.08;100.00;99428.38;4293607;33;20473;-77
2022/08/31 08:27:09;;;;;;;3.60;1.77;;;;;;;19.60;100.00;99478.31;4281152;33;21069;-75
2022/08/31 08:29:39;;;;;;;0.90;0.90;;;;;;;19.17;100.00;99434.78;4266509;33;20037;-75
2022/08/31 08:32:09;;;;;;;;;;;;;;;19.35;100.00;99467.81;4263573;33;20459;-74
2022/08/31 08:34:42;;;;;;;1.33;0.90;;;;;;;19.70;100.00;99476.53;4280705;33;20323;-77
2022/08/31 08:37:11;;;;;;;1.08;0.98;;;;;;;19.86;100.00;99479.84;4278788;33;20195;-74
2022/08/31 08:39:41;;;;;;;0.80;0.80;;;;;;;19.49;100.00;99444.09;4279277;33;20081;-74
2022/08/31 08:42:13;;;;;;;4.00;0.80;;;;;;;19.47;100.00;99446.31;4280295;33;20069;-75
2022/08/31 08:44:42;;;;;;;2.25;0.82;;;;;;;19.69;100.00;99474.91;4278344;33;20194;-75
2022/08/31 08:47:19;;;;;;;0.80;0.80;;;;;;;19.28;100.00;99429.16;4279810;33;20033;-74
2022/08/31 08:49:53;;;;;;;2.15;1.05;;;;;;;19.24;100.00;99492.56;4237487;33;20052;-75
2022/08/31 08:52:24;;;;;;;0.70;0.70;;;;;;;19.52;100.00;99492.66;4235681;33;20060;-75
2022/08/31 08:54:54;;;;;;;1.50;1.02;;;;;;;19.81;100.00;99486.19;4236898;33;20083;-73
2022/08/31 08:57:26;;;;;;;2.62;0.90;;;;;;;19.82;100.00;99479.62;4226768;33;20045;-74
2022/08/31 08:59:57;;;;;;;8.25;1.00;;;;;;;19.76;100.00;99478.09;4256353;33;20355;-77
2022/08/31 09:02:33;;;;;;;2.40;1.02;;;;;;;20.26;100.00;99461.88;4253934;33;20109;-73
2022/08/31 09:05:33;;;;;;;1.37;1.00;;;;;;;20.47;100.00;99477.84;4252993;33;20404;-74
2022/08/31 09:08:16;;;;;;;1.67;0.95;;;;;;;20.55;100.00;99468.94;4259252;33;20045;-73
2022/08/31 09:10:51;;;;;;;0.60;0.60;;;;;;;20.20;100.00;99435.75;4251225;33;20105;-72
2022/08/31 09:13:37;;;;;;;2.50;0.73;;;;;;;20.36;100.00;99470.97;4246874;33;20183;-75
2022/08/31 09:16:21;;;;;;;3.58;0.85;;;;;;;20.39;100.00;99464.88;4248893;33;20075;-76
2022/08/31 09:19:05;;;;;;;;;;;;;;;20.49;100.00;99440.09;4251943;33;20417;-77
2022/08/31 09:21:52;;;;;;;1.02;0.80;;;;;;;20.63;100.00;99470.97;4247330;33;19997;-73
2022/08/31 09:24:25;;;;;;;0.75;0.70;;;;;;;20.44;100.00;99451.13;4243809;33;20043;-77
2022/08/31 09:27:16;;;;;;;1.02;0.85;;;;;;;20.59;100.00;99461.75;4261287;33;20077;-74
2022/08/31 09:29:53;;;;;;;0.85;0.85;;;;;;;20.41;100.00;99446.28;4294887;33;20045;-74
2022/08/31 09:32:26;;;;;;;1.37;1.10;;;;;;;20.66;100.00;99436.72;4288537;33;20107;-75
2022/08/31 09:35:00;;;;;;;5.43;0.80;;;;;;;20.59;100.00;99453.53;4280255;33;20037;-74
2022/08/31 09:37:32;;;;;;;0.85;0.77;;;;;;;20.42;100.00;99442.41;4279519;33;20034;-77
2022/08/31 09:40:16;;;;;;;;;;;;;;;20.48;100.00;99463.06;4287196;33;20192;-74
2022/08/31 09:42:47;;;;;;;1.90;1.12;;;;;;;20.21;100.00;99481.09;4286117;33;19948;-74
2022/08/31 09:45:40;;;;;;;1.80;0.70;;;;;;;20.19;100.00;99433.31;4292059;33;20096;-76
2022/08/31 09:48:07;;;;;;;3.00;1.52;;;;;;;20.08;100.00;99440.91;4294173;33;20063;-73
2022/08/31 09:50:36;;;;;;;1.25;0.80;;;;;;;19.82;100.00;99408.59;4284434;33;20374;-74
2022/08/31 09:56:14;;;;;;;3.62;0.90;;;;;;;19.86;100.00;99436.91;4299017;33;20036;-74
2022/08/31 09:58:50;;;;;;;1.40;0.80;;;;;;;19.92;100.00;99383.00;4294660;33;20391;-74
2022/08/31 10:01:33;;;;;;;2.08;1.05;;;;;;;20.07;100.00;99474.81;4265744;33;20067;-75
2022/08/31 10:04:28;;;;;;;1.33;0.62;;;;;;;19.90;100.00;99437.94;4264589;33;20026;-78
2022/08/31 10:07:10;;;;;;;2.53;1.02;;;;;;;20.23;100.00;99467.94;4264227;33;20046;-75
2022/08/31 10:09:45;;;;;;;0.88;0.85;;;;;;;20.08;100.00;99432.69;4278807;33;20630;-77
2022/08/31 10:12:21;;;;;;;3.05;1.00;;;;;;;20.12;100.00;99428.25;4280034;33;20045;-75
2022/08/31 10:15:02;;;;;;;2.75;0.95;;;;;;;20.21;100.00;99459.22;4278931;33;20042;-76
2022/08/31 10:18:10;;;;;;;4.93;1.50;;;;;;;20.71;100.00;99465.91;4283081;33;20375;-75
2022/08/31 10:20:45;;;;;;;1.65;1.10;;;;;;;21.13;100.00;99455.69;4249754;33;20055;-75
2022/08/31 10:23:25;;;;;;;4.72;1.05;;;;;;;21.48;100.00;99455.94;4280991;33;20083;-74
2022/08/31 10:26:03;;;;;;;2.03;0.90;;;;;;;21.59;100.00;99451.84;4292839;33;20066;-74
2022/08/31 10:28:34;;;;;;;4.62;1.02;;;;;;;21.33;100.00;99424.25;4293479;33;20037;-73
2022/08/31 10:31:09;;;;;;;1.25;0.80;;;;;;;21.45;100.00;99437.37;4292007;33;20041;-74
2022/08/31 10:36:35;;;;;;;0.98;0.82;;;;;;;21.50;100.00;99472.91;4292702;33;20042;-75
2022/08/31 10:39:03;;;;;;;1.98;1.25;;;;;;;21.53;100.00;99464.06;4294751;33;20049;-73
2022/08/31 10:41:39;;;;;;;7.95;1.30;;;;;;;21.51;100.00;99463.56;4294149;33;20037;-77
2022/08/31 10:44:22;;;;;;;1.45;1.05;;;;;;;21.23;100.00;99433.53;4294768;33;20111;-73
2022/08/31 10:46:53;;;;;;;6.75;1.30;;;;;;;21.35;95.19;99463.91;4293700;33;20086;-73
2022/08/31 10:49:21;;;;;;;0.80;0.80;;;;;;;21.30;85.89;99463.22;4293016;33;20165;-74
2022/08/31 10:51:51;;;;;;;1.27;1.17;;;;;;;21.56;94.26;99457.97;4287304;33;20078;-75
2022/08/31 10:54:48;;;;;;;2.25;1.10;;;;;;;21.82;91.37;99432.62;4294213;33;20094;-73
2022/08/31 10:57:40;;;;;;;1.48;1.00;;;;;;;21.72;87.15;99461.91;4289035;33;20474;-75
2022/08/31 11:03:27;;;;;;;4.05;1.05;;;;;;;20.96;nan;99468.06;4280582;33;20057;-73
2022/08/31 11:06:07;;;;;;;0.98;0.65;;;;;;;20.78;97.84;99428.00;4278630;33;20029;-76
2022/08/31 11:09:18;;;;;;;0.95;0.90;;;;;;;21.39;97.80;99464.88;4290160;33;20061;-73
2022/08/31 11:11:58;;;;;;;0.50;0.50;;;;;;;21.48;100.00;99462.25;4270754;33;20216;-73
2022/08/31 11:14:42;;;;;;;1.95;1.27;;;;;;;21.11;100.00;99420.41;4294756;33;20065;-73
2022/08/31 11:17:19;;;;;;;1.00;1.00;;;;;;;21.12;100.00;99421.19;4293061;33;20080;-73
2022/08/31 11:20:18;;;;;;;0.88;0.82;;;;;;;20.99;100.00;99428.34;4291358;33;20063;-73
2022/08/31 11:22:55;;;;;;;1.17;1.08;;;;;;;21.57;99.65;99399.28;4270374;33;20089;-72
2022/08/31 11:25:59;;;;;;;2.95;0.95;;;;;;;21.85;94.76;99404.59;4289620;33;20067;-72
2022/08/31 11:28:40;;;;;;;1.30;0.90;;;;;;;23.11;92.07;99438.81;4264499;33;20083;-73
2022/08/31 11:31:26;;;;;;;1.92;0.90;;;;;;;23.18;81.41;99433.66;4240563;33;20072;-73
2022/08/31 11:34:14;;;;;;;1.90;0.95;;;;;;;22.67;83.26;99429.69;4245359;33;20039;-73
2022/08/31 11:36:49;;;;;;;0.93;0.93;;;;;;;22.54;81.73;99395.78;4229783;33;20434;-73
2022/08/31 11:39:21;;;;;;;3.15;1.48;;;;;;;23.29;72.59;99423.09;4223794;33;20735;-76
2022/08/31 11:41:49;;;;;;;6.37;2.85;;;;;;;23.52;69.34;99415.50;4256265;33;20085;-72
2022/08/31 11:44:32;;;;;;;4.90;0.98;;;;;;;23.31;68.08;99382.41;4264732;33;20344;-72
2022/08/31 11:47:27;;;;;;;7.22;1.87;;;;;;;23.29;62.21;99416.81;4264650;33;20103;-74
2022/08/31 11:49:56;;;;;;;0.80;0.80;;;;;;;22.99;69.35;99419.38;4261613;33;20056;-72
2022/08/31 11:52:52;;;;;;;0.93;0.82;;;;;;;22.83;70.32;99411.66;4263770;33;20141;-72
2022/08/31 11:55:46;;;;;;;2.17;1.12;;;;;;;22.09;87.39;99382.25;4265519;33;20097;-72
2022/08/31 11:58:22;;;;;;;0.88;0.80;;;;;;;21.65;95.62;99414.97;4218952;33;20466;-75
2022/08/31 12:01:24;;;;;;;7.50;1.37;;;;;;;21.45;100.00;99412.75;4207958;34;20039;-72
2022/08/31 12:04:02;;;;;;;3.92;1.33;;;;;;;21.49;100.00;99413.75;4226324;33;20054;-72
2022/08/31 12:06:30;;;;;;;1.42;1.25;;;;;;;21.58;93.58;99343.38;4243450;33;20111;-72
2022/08/31 12:09:13;;;;;;;3.62;0.88;;;;;;;21.89;91.41;99369.94;4251256;33;20042;-72